Terminal Aerodrome Forecast
Issued by NWS

Home | Current Version | Previous Version | Text Only | Print | Product List | Glossary On
Versions: 1 2 3 4 5 6 7 8 9 10 11 12 13 14 15 16
000
FTUS46 KLOX 040540
TAFPMD
TAF
KPMD 040540Z 0406/0506 21010KT P6SM SCT200
     FM040700 21008KT P6SM SCT200
     FM042000 24015G22KT P6SM SCT150
     FM050300 24012KT P6SM SKC=

USA.gov is the U.S. government's official web portal to all federal, state and local government web resources and services.